createdAt,value
2022-09-27T00:01:02.171Z,9.48
2022-09-27T00:03:34.153Z,8.95
2022-09-27T00:06:14.363Z,9.40
2022-09-27T00:08:45.981Z,9.07
2022-09-27T00:11:31.986Z,8.57
2022-09-27T00:14:06.322Z,8.05
2022-09-27T00:16:42.212Z,7.53
2022-09-27T00:19:19.386Z,8.25
2022-09-27T00:21:51.394Z,8.13
2022-09-27T00:24:23.133Z,6.32
2022-09-27T00:26:56.033Z,8.95
2022-09-27T00:29:27.667Z,7.55
2022-09-27T00:32:24.652Z,7.63
2022-09-27T00:34:56.361Z,7.95
2022-09-27T00:37:29.196Z,5.85
2022-09-27T00:40:00.990Z,6.93
2022-09-27T00:42:37.386Z,6.70
2022-09-27T00:45:15.044Z,9.05
2022-09-27T00:48:00.576Z,5.82
2022-09-27T00:50:43.623Z,9.27
2022-09-27T00:53:26.900Z,5.32
2022-09-27T00:56:03.616Z,9.93
2022-09-27T00:58:39.937Z,5.60
2022-09-27T01:01:14.743Z,7.10
2022-09-27T01:04:08.021Z,6.40
2022-09-27T01:06:42.530Z,5.22
2022-09-27T01:09:16.129Z,5.93
2022-09-27T01:12:01.256Z,5.80
2022-09-27T01:14:58.537Z,5.60
2022-09-27T01:17:51.429Z,6.53
2022-09-27T01:20:35.585Z,5.88
2022-09-27T01:23:34.159Z,6.40
2022-09-27T01:26:24.918Z,5.22
2022-09-27T01:29:05.190Z,7.40
2022-09-27T01:32:03.337Z,6.60
2022-09-27T01:34:48.404Z,7.00
2022-09-27T01:40:28.478Z,6.18
2022-09-27T01:43:49.692Z,5.85
2022-09-27T01:46:35.450Z,5.85
2022-09-27T01:49:46.029Z,5.75
2022-09-27T01:52:27.172Z,6.13
2022-09-27T01:55:06.556Z,7.30
2022-09-27T01:58:03.556Z,5.82
2022-09-27T02:00:36.933Z,5.50
2022-09-27T02:03:20.729Z,6.72
2022-09-27T02:06:23.310Z,7.05
2022-09-27T02:09:25.044Z,4.65
2022-09-27T02:12:18.874Z,6.00
2022-09-27T02:14:58.612Z,5.07
2022-09-27T02:17:56.514Z,4.80
2022-09-27T02:20:46.230Z,5.97
2022-09-27T02:23:39.545Z,6.05
2022-09-27T02:26:31.483Z,6.03
2022-09-27T02:29:11.363Z,6.28
2022-09-27T02:31:52.659Z,5.25
2022-09-27T02:34:29.458Z,7.50
2022-09-27T02:37:01.834Z,5.90
2022-09-27T02:39:37.893Z,5.25
2022-09-27T02:42:12.655Z,4.20
2022-09-27T02:44:46.905Z,5.93
2022-09-27T02:47:24.463Z,5.50
2022-09-27T02:50:17.204Z,5.53
2022-09-27T02:53:50.332Z,6.00
2022-09-27T02:57:26.532Z,5.63
2022-09-27T03:00:28.583Z,4.50
2022-09-27T03:03:20.939Z,8.15
2022-09-27T03:06:09.205Z,5.07
2022-09-27T03:08:41.957Z,4.90
2022-09-27T03:11:13.839Z,5.75
2022-09-27T03:14:07.865Z,4.75
2022-09-27T03:16:43.377Z,4.53
2022-09-27T03:19:33.529Z,4.50
2022-09-27T03:22:26.504Z,4.78
2022-09-27T03:24:59.537Z,4.18
2022-09-27T03:27:31.222Z,4.63
2022-09-27T03:30:06.412Z,5.13
2022-09-27T03:32:44.114Z,4.47
2022-09-27T03:35:37.305Z,4.65
2022-09-27T03:38:12.708Z,3.95
2022-09-27T03:40:48.087Z,5.45
2022-09-27T03:43:20.065Z,3.50
2022-09-27T03:45:52.353Z,5.68
2022-09-27T03:48:27.986Z,3.20
2022-09-27T03:51:00.047Z,4.32
2022-09-27T03:53:31.793Z,4.15
2022-09-27T03:56:04.253Z,5.82
2022-09-27T03:58:36.050Z,4.55
2022-09-27T04:01:11.879Z,3.60
2022-09-27T04:03:47.400Z,5.22
2022-09-27T04:06:52.973Z,5.57
2022-09-27T04:09:25.345Z,4.47
2022-09-27T04:12:05.089Z,3.33
2022-09-27T04:14:37.955Z,4.07
2022-09-27T04:17:28.493Z,3.88
2022-09-27T04:20:19.834Z,5.07
2022-09-27T04:22:51.427Z,3.92
2022-09-27T04:25:23.264Z,4.38
2022-09-27T04:27:55.625Z,4.00
2022-09-27T04:30:29.127Z,4.43
2022-09-27T04:33:00.750Z,4.70
2022-09-27T04:36:12.827Z,4.13
2022-09-27T04:39:01.387Z,3.90
2022-09-27T04:41:35.674Z,4.30
2022-09-27T04:44:07.342Z,4.53
2022-09-27T04:46:39.220Z,4.80
2022-09-27T04:49:11.013Z,5.55
2022-09-27T04:51:42.750Z,4.70
2022-09-27T04:54:16.417Z,6.47
2022-09-27T04:57:12.361Z,3.72
2022-09-27T04:59:45.288Z,5.28
2022-09-27T05:02:18.880Z,5.30
2022-09-27T05:05:22.795Z,5.93
2022-09-27T05:07:55.408Z,4.50
2022-09-27T05:10:43.235Z,4.80
2022-09-27T05:13:19.161Z,4.43
2022-09-27T05:15:53.858Z,3.88
2022-09-27T05:18:45.947Z,4.78
2022-09-27T05:21:35.815Z,5.97
2022-09-27T05:24:07.490Z,3.40
2022-09-27T05:26:39.168Z,7.70
2022-09-27T05:29:11.559Z,4.50
2022-09-27T05:31:47.721Z,5.80
2022-09-27T05:37:02.492Z,3.90
2022-09-27T05:42:10.315Z,4.07
2022-09-27T05:44:42.461Z,4.15
2022-09-27T05:47:16.051Z,5.25
2022-09-27T05:49:48.788Z,3.47
2022-09-27T05:52:21.614Z,6.18
2022-09-27T05:54:55.901Z,6.18
2022-09-27T05:57:27.810Z,3.80
2022-09-27T06:00:05.240Z,4.32
2022-09-27T06:03:04.349Z,5.47
2022-09-27T06:06:05.856Z,4.57
2022-09-27T06:08:44.084Z,3.72
2022-09-27T06:11:19.470Z,3.30
2022-09-27T06:16:28.496Z,3.78
2022-09-27T06:19:02.275Z,3.65
2022-09-27T06:21:37.575Z,3.55
2022-09-27T06:24:12.543Z,5.63
2022-09-27T06:26:45.438Z,4.22
2022-09-27T06:29:35.650Z,4.47
2022-09-27T06:32:13.367Z,3.65
2022-09-27T06:35:14.318Z,3.65
2022-09-27T06:37:47.457Z,4.30
2022-09-27T06:40:20.359Z,3.45
2022-09-27T06:43:06.165Z,5.68
2022-09-27T06:46:05.354Z,4.05
2022-09-27T06:48:56.595Z,4.90
2022-09-27T06:51:31.388Z,5.03
2022-09-27T06:54:03.055Z,3.63
2022-09-27T06:56:40.905Z,4.00
2022-09-27T06:59:31.496Z,6.70
2022-09-27T07:02:25.696Z,3.67
2022-09-27T07:05:21.027Z,5.03
2022-09-27T07:08:09.825Z,3.25
2022-09-27T07:10:45.069Z,3.00
2022-09-27T07:13:17.228Z,3.03
2022-09-27T07:15:49.567Z,2.83
2022-09-27T07:18:21.377Z,3.45
2022-09-27T07:20:56.872Z,3.10
2022-09-27T07:23:32.157Z,3.47
2022-09-27T07:26:06.921Z,3.90
2022-09-27T07:28:41.553Z,3.03
2022-09-27T07:31:14.217Z,2.58
2022-09-27T07:33:46.234Z,4.47
2022-09-27T07:36:21.920Z,3.33
2022-09-27T07:38:53.903Z,2.03
2022-09-27T07:41:27.001Z,3.35
2022-09-27T07:43:59.952Z,3.22
2022-09-27T07:46:35.908Z,7.80
2022-09-27T07:49:25.065Z,3.25
2022-09-27T07:52:23.421Z,4.82
2022-09-27T07:55:24.443Z,1.80
2022-09-27T07:58:16.640Z,2.83
2022-09-27T08:00:48.706Z,3.45
2022-09-27T08:03:20.430Z,2.92
2022-09-27T08:05:57.861Z,2.78
2022-09-27T08:08:30.194Z,2.80
2022-09-27T08:11:10.279Z,1.75
2022-09-27T08:13:43.431Z,1.48
2022-09-27T08:16:18.209Z,1.42
2022-09-27T08:19:11.646Z,3.15
2022-09-27T08:22:01.703Z,2.58
2022-09-27T08:24:39.877Z,3.35
2022-09-27T08:27:19.964Z,1.67
2022-09-27T08:29:54.164Z,2.83
2022-09-27T08:32:33.143Z,2.08
2022-09-27T08:35:09.437Z,1.70
2022-09-27T08:37:41.356Z,2.45
2022-09-27T08:40:17.768Z,1.45
2022-09-27T08:43:16.721Z,3.13
2022-09-27T08:46:10.230Z,2.03
2022-09-27T08:48:48.481Z,1.60
2022-09-27T08:51:26.088Z,2.03
2022-09-27T08:54:30.103Z,1.58
2022-09-27T08:57:26.574Z,1.70
2022-09-27T09:00:07.208Z,1.30
2022-09-27T09:02:41.672Z,3.55
2022-09-27T09:05:21.685Z,0.98
2022-09-27T09:08:19.127Z,2.05
2022-09-27T09:11:18.668Z,1.45
2022-09-27T09:14:13.700Z,1.50
2022-09-27T09:17:22.524Z,4.07
2022-09-27T09:20:47.771Z,1.92
2022-09-27T09:23:37.548Z,2.22
2022-09-27T09:26:17.818Z,1.85
2022-09-27T09:29:17.066Z,4.57
2022-09-27T09:32:24.285Z,3.25
2022-09-27T09:35:25.056Z,2.33
2022-09-27T09:38:08.616Z,2.78
2022-09-27T09:40:55.764Z,2.17
2022-09-27T09:44:21.484Z,1.80
2022-09-27T09:46:59.858Z,1.20
2022-09-27T09:49:41.993Z,1.75
2022-09-27T09:52:19.552Z,2.75
2022-09-27T09:55:00.785Z,2.25
2022-09-27T09:58:03.495Z,2.90
2022-09-27T10:00:45.524Z,3.00
2022-09-27T10:03:17.574Z,2.27
2022-09-27T10:05:50.178Z,1.75
2022-09-27T10:08:24.230Z,3.25
2022-09-27T10:11:21.341Z,1.45
2022-09-27T10:14:01.670Z,2.75
2022-09-27T10:16:33.475Z,1.35
2022-09-27T10:19:10.093Z,1.13
2022-09-27T10:21:47.724Z,1.42
2022-09-27T10:24:20.711Z,2.20
2022-09-27T10:27:21.912Z,1.35
2022-09-27T10:30:02.111Z,1.33
2022-09-27T10:32:37.140Z,1.05
2022-09-27T10:35:28.966Z,1.38
2022-09-27T10:38:18.940Z,2.33
2022-09-27T10:40:56.081Z,2.85
2022-09-27T10:43:32.630Z,2.28
2022-09-27T10:46:34.505Z,2.90
2022-09-27T10:49:35.614Z,1.50
2022-09-27T10:52:18.694Z,1.45
2022-09-27T10:54:56.690Z,1.85
2022-09-27T10:57:31.229Z,0.85
2022-09-27T11:00:23.162Z,3.40
2022-09-27T11:02:59.914Z,0.90
2022-09-27T11:05:39.576Z,1.88
2022-09-27T11:08:24.190Z,2.83
2022-09-27T11:11:25.399Z,1.20
2022-09-27T11:14:12.036Z,1.38
2022-09-27T11:17:05.076Z,1.88
2022-09-27T11:20:12.541Z,3.17
2022-09-27T11:23:45.671Z,1.10
2022-09-27T11:26:44.796Z,0.70
2022-09-27T11:29:41.890Z,7.63
2022-09-27T11:32:41.903Z,5.03
2022-09-27T11:35:38.986Z,4.20
2022-09-27T11:38:52.283Z,2.20
2022-09-27T11:41:37.588Z,3.25
2022-09-27T11:44:48.766Z,4.28
2022-09-27T11:47:49.399Z,0.45
2022-09-27T11:50:58.625Z,1.35
2022-09-27T11:54:03.343Z,1.30
2022-09-27T11:57:06.039Z,1.42
2022-09-27T12:00:05.615Z,0.95
2022-09-27T12:03:28.474Z,1.83
2022-09-27T12:06:21.462Z,1.70
2022-09-27T12:08:55.898Z,0.45
2022-09-27T12:11:37.419Z,0.68
2022-09-27T12:14:22.490Z,1.50
2022-09-27T12:16:58.460Z,1.02
2022-09-27T12:19:39.981Z,2.33
2022-09-27T12:22:53.962Z,1.52
2022-09-27T12:25:23.683Z,1.77
2022-09-27T12:28:34.724Z,0.35
2022-09-27T12:31:30.485Z,1.20
2022-09-27T12:34:18.886Z,1.30
2022-09-27T12:37:33.044Z,0.40
2022-09-27T12:40:30.175Z,0.55
2022-09-27T12:43:27.842Z,0.60
2022-09-27T12:46:20.673Z,0.30
2022-09-27T12:49:25.767Z,0.70
2022-09-27T12:52:05.273Z,0.30
2022-09-27T12:54:37.500Z,0.88
2022-09-27T12:57:34.486Z,0.93
2022-09-27T13:00:21.104Z,1.27
2022-09-27T13:03:34.679Z,0.90
2022-09-27T13:06:27.482Z,0.77
2022-09-27T13:09:10.521Z,1.75
2022-09-27T13:11:55.253Z,0.65
2022-09-27T13:14:32.276Z,1.77
2022-09-27T13:17:04.073Z,1.02
2022-09-27T13:19:45.564Z,0.73
2022-09-27T13:22:40.664Z,0.55
2022-09-27T13:25:56.457Z,0.88
2022-09-27T13:28:58.432Z,0.93
2022-09-27T13:31:57.775Z,0.57
2022-09-27T13:34:48.827Z,0.30
2022-09-27T13:37:55.438Z,0.73
2022-09-27T13:40:40.786Z,0.47
2022-09-27T13:43:47.673Z,0.65
2022-09-27T13:46:37.041Z,0.60
2022-09-27T13:49:19.179Z,0.30
2022-09-27T13:52:34.073Z,1.27
2022-09-27T13:55:41.545Z,32.67
2022-09-27T13:58:35.531Z,29.60
2022-09-27T14:01:42.971Z,5.25
2022-09-27T14:04:27.481Z,6.30
2022-09-27T14:07:02.142Z,8.83
2022-09-27T14:09:48.166Z,5.38
2022-09-27T14:12:32.389Z,7.20
2022-09-27T14:15:08.776Z,3.65
2022-09-27T14:17:46.836Z,4.80
2022-09-27T14:20:41.681Z,10.60
2022-09-27T14:23:27.246Z,1.42
2022-09-27T14:25:59.071Z,6.50
2022-09-27T14:28:40.282Z,6.60
2022-09-27T14:31:24.571Z,1.73
2022-09-27T14:34:15.345Z,0.43
2022-09-27T14:37:10.570Z,0.80
2022-09-27T14:40:21.990Z,1.55
2022-09-27T14:42:59.868Z,0.52
2022-09-27T14:45:37.513Z,0.65
2022-09-27T14:48:22.482Z,2.05
2022-09-27T14:53:47.639Z,0.57
2022-09-27T14:56:22.810Z,0.90
2022-09-27T14:59:02.556Z,1.10
2022-09-27T15:01:36.177Z,1.40
2022-09-27T15:04:14.083Z,1.00
2022-09-27T15:06:47.438Z,3.17
2022-09-27T15:09:19.586Z,0.88
2022-09-27T15:12:00.810Z,0.40
2022-09-27T15:14:33.814Z,1.27
2022-09-27T15:17:16.617Z,1.08
2022-09-27T15:20:00.226Z,1.60
2022-09-27T15:22:33.807Z,0.82
2022-09-27T15:25:34.852Z,1.08
2022-09-27T15:28:19.094Z,1.52
2022-09-27T15:30:57.653Z,1.75
2022-09-27T15:33:34.690Z,1.25
2022-09-27T15:36:11.757Z,1.83
2022-09-27T15:38:48.274Z,1.38
2022-09-27T15:41:21.350Z,2.13
2022-09-27T15:43:53.095Z,0.82
2022-09-27T15:46:43.257Z,2.85
2022-09-27T15:49:18.063Z,1.40
2022-09-27T15:51:54.717Z,1.10
2022-09-27T15:54:37.131Z,3.58
2022-09-27T15:57:12.368Z,1.83
2022-09-27T15:59:43.997Z,1.10
2022-09-27T16:02:17.577Z,1.02
2022-09-27T16:04:49.197Z,4.05
2022-09-27T16:07:21.088Z,1.10
2022-09-27T16:09:55.451Z,1.33
2022-09-27T16:12:30.232Z,3.92
2022-09-27T16:15:01.877Z,1.38
2022-09-27T16:17:33.540Z,1.90
2022-09-27T16:20:06.159Z,1.38
2022-09-27T16:22:37.827Z,1.13
2022-09-27T16:25:09.664Z,1.52
2022-09-27T16:27:41.657Z,1.55
2022-09-27T16:30:14.089Z,1.17
2022-09-27T16:32:47.617Z,2.03
2022-09-27T16:35:20.880Z,2.83
2022-09-27T16:37:52.688Z,4.55
2022-09-27T16:40:26.673Z,2.95
2022-09-27T16:42:58.406Z,1.58
2022-09-27T16:45:33.325Z,3.40
2022-09-27T16:48:07.749Z,1.73
2022-09-27T16:50:57.848Z,1.88
2022-09-27T16:53:30.222Z,2.42
2022-09-27T16:56:02.112Z,2.10
2022-09-27T16:58:33.720Z,2.63
2022-09-27T17:01:05.962Z,1.50
2022-09-27T17:03:38.064Z,1.80
2022-09-27T17:06:12.645Z,2.22
2022-09-27T17:08:45.131Z,2.40
2022-09-27T17:11:18.829Z,2.10
2022-09-27T17:13:54.767Z,2.03
2022-09-27T17:16:28.208Z,2.10
2022-09-27T17:18:59.940Z,6.20
2022-09-27T17:21:38.170Z,1.88
2022-09-27T17:24:10.098Z,2.00
2022-09-27T17:26:42.181Z,2.58
2022-09-27T17:29:14.488Z,4.30
2022-09-27T17:31:46.376Z,3.05
2022-09-27T17:34:18.307Z,4.50
2022-09-27T17:36:51.662Z,2.70
2022-09-27T17:39:23.302Z,4.57
2022-09-27T17:41:54.950Z,2.83
2022-09-27T17:44:27.196Z,5.18
2022-09-27T17:47:17.521Z,3.45
2022-09-27T17:50:21.079Z,3.55
2022-09-27T17:52:53.785Z,5.28
2022-09-27T17:55:27.050Z,5.03
2022-09-27T17:57:58.646Z,3.03
2022-09-27T18:00:30.477Z,3.45
2022-09-27T18:03:02.179Z,3.17
2022-09-27T18:05:34.013Z,3.63
2022-09-27T18:08:05.713Z,4.05
2022-09-27T18:10:40.224Z,5.78
2022-09-27T18:13:12.832Z,6.18
2022-09-27T18:15:45.639Z,3.65
2022-09-27T18:18:17.320Z,3.22
2022-09-27T18:20:49.002Z,4.90
2022-09-27T18:23:20.665Z,6.95
2022-09-27T18:25:55.859Z,5.22
2022-09-27T18:28:31.781Z,5.18
2022-09-27T18:31:15.787Z,3.83
2022-09-27T18:33:49.290Z,6.90
2022-09-27T18:36:26.069Z,4.65
2022-09-27T18:39:00.672Z,4.68
2022-09-27T18:41:34.107Z,5.05
2022-09-27T18:44:06.744Z,4.15
2022-09-27T18:46:38.598Z,4.05
2022-09-27T18:49:12.681Z,5.75
2022-09-27T18:51:46.294Z,5.75
2022-09-27T18:54:22.580Z,3.65
2022-09-27T18:56:58.876Z,2.90
2022-09-27T18:59:30.569Z,3.53
2022-09-27T19:02:02.294Z,4.10
2022-09-27T19:04:33.956Z,6.60
2022-09-27T19:07:05.604Z,3.65
2022-09-27T19:09:37.268Z,3.13
2022-09-27T19:12:08.960Z,6.28
2022-09-27T19:14:40.587Z,5.05
2022-09-27T19:17:14.254Z,5.85
2022-09-27T19:19:45.893Z,4.80
2022-09-27T19:22:19.897Z,6.80
2022-09-27T19:24:54.606Z,6.45
2022-09-27T19:27:26.234Z,5.40
2022-09-27T19:29:59.246Z,6.82
2022-09-27T19:32:33.758Z,5.28
2022-09-27T19:35:06.143Z,5.22
2022-09-27T19:37:37.827Z,4.20
2022-09-27T19:40:09.438Z,5.40
2022-09-27T19:42:41.218Z,6.18
2022-09-27T19:45:12.802Z,5.25
2022-09-27T19:47:44.621Z,5.47
2022-09-27T19:50:16.700Z,5.25
2022-09-27T19:52:49.593Z,6.85
2022-09-27T19:55:21.200Z,3.40
2022-09-27T19:57:55.143Z,4.82
2022-09-27T20:00:26.788Z,3.20
2022-09-27T20:02:58.753Z,10.77
2022-09-27T20:05:30.382Z,4.00
2022-09-27T20:08:04.942Z,4.90
2022-09-27T20:10:36.533Z,4.53
2022-09-27T20:13:08.149Z,4.40
2022-09-27T20:15:39.764Z,5.60
2022-09-27T20:18:11.912Z,3.38
2022-09-27T20:20:43.688Z,3.83
2022-09-27T20:23:19.898Z,4.57
2022-09-27T20:25:51.542Z,4.50
2022-09-27T20:28:23.160Z,4.30
2022-09-27T20:30:59.452Z,6.72
2022-09-27T20:33:49.633Z,5.85
2022-09-27T20:36:27.746Z,5.07
2022-09-27T20:39:05.273Z,6.45
2022-09-27T20:41:40.777Z,4.80
2022-09-27T20:44:14.770Z,5.07
2022-09-27T20:46:47.493Z,6.22
2022-09-27T20:49:19.560Z,4.43
2022-09-27T20:51:51.438Z,3.75
2022-09-27T20:54:23.167Z,4.72
2022-09-27T20:56:55.143Z,4.53
2022-09-27T20:59:26.811Z,3.90
2022-09-27T21:01:58.536Z,3.67
2022-09-27T21:04:31.657Z,3.47
2022-09-27T21:07:03.894Z,3.00
2022-09-27T21:09:37.447Z,3.85
2022-09-27T21:12:09.013Z,7.47
2022-09-27T21:14:40.677Z,3.88
2022-09-27T21:17:12.605Z,4.30
2022-09-27T21:19:44.261Z,3.90
2022-09-27T21:22:19.079Z,3.78
2022-09-27T21:24:52.114Z,4.47
2022-09-27T21:27:23.685Z,2.33
2022-09-27T21:29:55.335Z,4.60
2022-09-27T21:32:28.657Z,4.10
2022-09-27T21:35:00.378Z,2.58
2022-09-27T21:37:31.933Z,3.13
2022-09-27T21:40:05.256Z,4.40
2022-09-27T21:42:36.829Z,3.67
2022-09-27T21:45:09.056Z,3.78
2022-09-27T21:47:41.717Z,2.75
2022-09-27T21:50:15.694Z,3.42
2022-09-27T21:52:47.370Z,3.60
2022-09-27T21:55:18.978Z,3.90
2022-09-27T21:57:50.756Z,2.53
2022-09-27T22:00:22.659Z,4.47
2022-09-27T22:02:58.041Z,2.35
2022-09-27T22:05:29.662Z,4.40
2022-09-27T22:08:01.378Z,3.17
2022-09-27T22:10:33.021Z,4.05
2022-09-27T22:13:04.738Z,3.95
2022-09-27T22:15:37.410Z,4.22
2022-09-27T22:18:08.973Z,3.67
2022-09-27T22:20:40.569Z,3.13
2022-09-27T22:23:12.749Z,4.47
2022-09-27T22:25:44.421Z,3.83
2022-09-27T22:28:16.006Z,3.35
2022-09-27T22:30:47.623Z,5.18
2022-09-27T22:33:19.473Z,3.53
2022-09-27T22:35:51.135Z,5.03
2022-09-27T22:38:22.766Z,7.07
2022-09-27T22:40:59.027Z,2.85
2022-09-27T22:43:31.678Z,3.45
2022-09-27T22:46:03.523Z,4.72
2022-09-27T22:48:36.523Z,5.00
2022-09-27T22:51:09.175Z,3.63
2022-09-27T22:53:41.090Z,3.88
2022-09-27T22:56:15.327Z,3.47
2022-09-27T22:58:48.187Z,3.65
2022-09-27T23:01:27.482Z,4.57
2022-09-27T23:03:59.270Z,4.45
2022-09-27T23:06:32.030Z,3.17
2022-09-27T23:09:03.678Z,4.40
2022-09-27T23:11:35.480Z,3.92
2022-09-27T23:14:08.388Z,3.58
2022-09-27T23:16:40.021Z,2.70
2022-09-27T23:19:11.613Z,3.65
2022-09-27T23:21:43.265Z,3.55
2022-09-27T23:24:14.844Z,3.28
2022-09-27T23:27:06.589Z,3.15
2022-09-27T23:29:38.194Z,2.83
2022-09-27T23:32:09.857Z,3.22
2022-09-27T23:34:44.164Z,4.05
2022-09-27T23:37:15.778Z,4.82
2022-09-27T23:39:47.702Z,5.15
2022-09-27T23:42:19.602Z,3.92
2022-09-27T23:44:52.658Z,4.13
2022-09-27T23:47:26.290Z,2.75
2022-09-27T23:49:58.346Z,2.88
2022-09-27T23:52:30.021Z,3.75
2022-09-27T23:55:01.678Z,2.17
2022-09-27T23:57:33.259Z,4.97
